sensor_id;sensor_type;location;lat;lon;timestamp;pressure;altitude;pressure_sealevel;temperature;humidity
20027;BME280;10174;42.688;23.344;2023-11-19T00:01:08;95319.53;;;3.03;82.12
20027;BME280;10174;42.688;23.344;2023-11-19T00:03:33;95332.53;;;3.11;82.40
20027;BME280;10174;42.688;23.344;2023-11-19T00:05:59;95302.78;;;3.02;81.49
20027;BME280;10174;42.688;23.344;2023-11-19T00:08:24;95324.19;;;3.08;81.33
20027;BME280;10174;42.688;23.344;2023-11-19T00:10:50;95299.22;;;2.90;81.33
20027;BME280;10174;42.688;23.344;2023-11-19T00:13:16;95290.63;;;2.88;80.88
20027;BME280;10174;42.688;23.344;2023-11-19T00:15:42;95300.72;;;3.05;81.26
20027;BME280;10174;42.688;23.344;2023-11-19T00:18:07;95231.69;;;2.54;81.21
20027;BME280;10174;42.688;23.344;2023-11-19T00:20:33;95284.59;;;2.74;80.85
20027;BME280;10174;42.688;23.344;2023-11-19T00:22:58;95314.28;;;2.96;81.89
20027;BME280;10174;42.688;23.344;2023-11-19T00:25:24;95341.13;;;3.07;81.35
20027;BME280;10174;42.688;23.344;2023-11-19T00:27:50;95332.16;;;3.08;80.85
20027;BME280;10174;42.688;23.344;2023-11-19T00:30:18;95327.34;;;2.98;80.81
20027;BME280;10174;42.688;23.344;2023-11-19T00:32:44;95313.50;;;2.89;81.00
20027;BME280;10174;42.688;23.344;2023-11-19T00:35:10;95333.28;;;2.93;81.19
20027;BME280;10174;42.688;23.344;2023-11-19T00:37:36;95339.59;;;2.92;81.28
20027;BME280;10174;42.688;23.344;2023-11-19T00:40:02;95327.13;;;2.99;80.89
20027;BME280;10174;42.688;23.344;2023-11-19T00:42:30;95207.56;;;2.30;80.55
20027;BME280;10174;42.688;23.344;2023-11-19T00:44:56;95319.31;;;3.05;80.95
20027;BME280;10174;42.688;23.344;2023-11-19T00:47:21;95334.59;;;3.09;81.39
20027;BME280;10174;42.688;23.344;2023-11-19T00:49:47;95339.25;;;3.14;81.04
20027;BME280;10174;42.688;23.344;2023-11-19T00:52:16;95329.00;;;2.92;81.53
20027;BME280;10174;42.688;23.344;2023-11-19T00:54:42;95342.63;;;3.02;81.96
20027;BME280;10174;42.688;23.344;2023-11-19T00:57:07;95333.38;;;3.12;81.33
20027;BME280;10174;42.688;23.344;2023-11-19T00:59:33;95334.72;;;2.89;81.82
20027;BME280;10174;42.688;23.344;2023-11-19T01:01:58;95343.72;;;2.88;82.28
20027;BME280;10174;42.688;23.344;2023-11-19T01:04:29;95336.25;;;3.03;82.22
20027;BME280;10174;42.688;23.344;2023-11-19T01:06:54;95325.31;;;2.93;82.23
20027;BME280;10174;42.688;23.344;2023-11-19T01:09:19;95313.16;;;2.79;82.32
20027;BME280;10174;42.688;23.344;2023-11-19T01:11:45;95323.34;;;2.82;81.99
20027;BME280;10174;42.688;23.344;2023-11-19T01:14:10;95334.31;;;2.92;81.80
20027;BME280;10174;42.688;23.344;2023-11-19T01:16:36;95343.91;;;2.93;82.07
20027;BME280;10174;42.688;23.344;2023-11-19T01:19:01;95228.25;;;2.15;81.89
20027;BME280;10174;42.688;23.344;2023-11-19T01:21:30;95340.28;;;2.81;82.15
20027;BME280;10174;42.688;23.344;2023-11-19T01:23:56;95225.41;;;2.10;81.68
20027;BME280;10174;42.688;23.344;2023-11-19T01:26:22;95353.75;;;2.86;81.78
20027;BME280;10174;42.688;23.344;2023-11-19T01:28:47;95317.50;;;2.66;81.74
20027;BME280;10174;42.688;23.344;2023-11-19T01:31:16;95313.28;;;2.59;81.91
20027;BME280;10174;42.688;23.344;2023-11-19T01:33:42;95248.59;;;2.21;82.20
20027;BME280;10174;42.688;23.344;2023-11-19T01:36:07;95350.72;;;2.76;81.78
20027;BME280;10174;42.688;23.344;2023-11-19T01:38:34;95358.41;;;2.91;82.08
20027;BME280;10174;42.688;23.344;2023-11-19T01:41:00;95335.16;;;2.86;80.99
20027;BME280;10174;42.688;23.344;2023-11-19T01:45:59;95349.72;;;3.09;81.15
20027;BME280;10174;42.688;23.344;2023-11-19T01:48:25;95333.09;;;2.88;80.80
20027;BME280;10174;42.688;23.344;2023-11-19T01:50:51;95366.06;;;3.06;80.54
20027;BME280;10174;42.688;23.344;2023-11-19T01:53:18;95352.53;;;3.14;79.76
20027;BME280;10174;42.688;23.344;2023-11-19T01:55:45;95364.44;;;3.05;79.00
20027;BME280;10174;42.688;23.344;2023-11-19T01:58:11;95341.03;;;2.95;79.01
20027;BME280;10174;42.688;23.344;2023-11-19T02:00:37;95311.94;;;2.75;79.60
20027;BME280;10174;42.688;23.344;2023-11-19T02:03:05;95354.31;;;2.88;79.17
20027;BME280;10174;42.688;23.344;2023-11-19T02:05:33;95359.63;;;2.88;78.93
20027;BME280;10174;42.688;23.344;2023-11-19T02:08:00;95359.22;;;2.91;78.94
20027;BME280;10174;42.688;23.344;2023-11-19T02:10:26;95345.00;;;2.79;78.59
20027;BME280;10174;42.688;23.344;2023-11-19T02:12:51;95319.81;;;2.56;79.08
20027;BME280;10174;42.688;23.344;2023-11-19T02:15:17;95338.91;;;2.72;79.10
20027;BME280;10174;42.688;23.344;2023-11-19T02:17:47;95233.00;;;2.06;79.25
20027;BME280;10174;42.688;23.344;2023-11-19T02:20:12;95241.69;;;2.13;78.89
20027;BME280;10174;42.688;23.344;2023-11-19T02:22:40;95306.13;;;2.59;79.48
20027;BME280;10174;42.688;23.344;2023-11-19T02:25:22;95331.63;;;2.60;79.40
20027;BME280;10174;42.688;23.344;2023-11-19T02:27:57;95305.66;;;2.30;80.11
20027;BME280;10174;42.688;23.344;2023-11-19T02:30:24;95340.28;;;2.49;80.53
20027;BME280;10174;42.688;23.344;2023-11-19T02:33:00;95332.97;;;2.38;80.77
20027;BME280;10174;42.688;23.344;2023-11-19T02:35:31;95325.19;;;2.43;81.14
20027;BME280;10174;42.688;23.344;2023-11-19T02:37:58;95307.91;;;2.27;81.43
20027;BME280;10174;42.688;23.344;2023-11-19T02:40:29;95312.59;;;2.31;81.12
20027;BME280;10174;42.688;23.344;2023-11-19T02:42:55;95332.16;;;2.37;80.80
20027;BME280;10174;42.688;23.344;2023-11-19T02:45:24;95335.03;;;2.36;81.55
20027;BME280;10174;42.688;23.344;2023-11-19T02:47:51;95327.28;;;2.34;81.86
20027;BME280;10174;42.688;23.344;2023-11-19T02:50:18;95302.88;;;2.12;81.54
20027;BME280;10174;42.688;23.344;2023-11-19T02:52:51;95341.13;;;2.43;81.95
20027;BME280;10174;42.688;23.344;2023-11-19T02:55:17;95333.81;;;2.31;81.48
20027;BME280;10174;42.688;23.344;2023-11-19T02:57:43;95330.56;;;2.29;81.78
20027;BME280;10174;42.688;23.344;2023-11-19T03:00:15;95324.84;;;2.33;82.30
20027;BME280;10174;42.688;23.344;2023-11-19T03:02:41;95332.59;;;2.27;82.61
20027;BME280;10174;42.688;23.344;2023-11-19T03:05:12;95335.66;;;2.24;82.33
20027;BME280;10174;42.688;23.344;2023-11-19T03:07:42;95332.63;;;2.21;82.74
20027;BME280;10174;42.688;23.344;2023-11-19T03:10:12;95308.59;;;2.09;83.03
20027;BME280;10174;42.688;23.344;2023-11-19T03:12:40;95323.66;;;2.15;82.30
20027;BME280;10174;42.688;23.344;2023-11-19T03:15:06;95345.66;;;2.22;82.08
20027;BME280;10174;42.688;23.344;2023-11-19T03:17:32;95346.94;;;2.13;82.44
20027;BME280;10174;42.688;23.344;2023-11-19T03:20:00;95335.06;;;2.22;82.04
20027;BME280;10174;42.688;23.344;2023-11-19T03:22:26;95345.69;;;2.16;82.44
20027;BME280;10174;42.688;23.344;2023-11-19T03:24:51;95335.47;;;2.19;82.13
20027;BME280;10174;42.688;23.344;2023-11-19T03:27:17;95329.34;;;2.25;82.00
20027;BME280;10174;42.688;23.344;2023-11-19T03:29:42;95338.31;;;2.24;82.08
20027;BME280;10174;42.688;23.344;2023-11-19T03:32:08;95216.88;;;1.49;82.42
20027;BME280;10174;42.688;23.344;2023-11-19T03:34:33;95330.78;;;2.21;82.46
20027;BME280;10174;42.688;23.344;2023-11-19T03:36:59;95252.50;;;1.67;82.43
20027;BME280;10174;42.688;23.344;2023-11-19T03:39:25;95252.91;;;1.64;81.88
20027;BME280;10174;42.688;23.344;2023-11-19T03:41:50;95321.84;;;2.09;81.81
20027;BME280;10174;42.688;23.344;2023-11-19T03:44:16;95349.13;;;2.23;82.13
20027;BME280;10174;42.688;23.344;2023-11-19T03:46:41;95329.03;;;2.02;82.40
20027;BME280;10174;42.688;23.344;2023-11-19T03:49:07;95366.69;;;2.17;82.55
20027;BME280;10174;42.688;23.344;2023-11-19T03:51:33;95380.31;;;2.27;82.39
20027;BME280;10174;42.688;23.344;2023-11-19T03:54:00;95386.66;;;2.26;82.20
20027;BME280;10174;42.688;23.344;2023-11-19T03:56:25;95373.81;;;2.23;81.79
20027;BME280;10174;42.688;23.344;2023-11-19T03:58:52;95367.72;;;2.16;82.23
20027;BME280;10174;42.688;23.344;2023-11-19T04:01:17;95348.19;;;2.04;81.81
20027;BME280;10174;42.688;23.344;2023-11-19T04:03:43;95366.88;;;2.22;82.13
20027;BME280;10174;42.688;23.344;2023-11-19T04:06:09;95385.63;;;2.27;82.25
20027;BME280;10174;42.688;23.344;2023-11-19T04:08:34;95345.94;;;2.01;81.95
20027;BME280;10174;42.688;23.344;2023-11-19T04:11:02;95392.97;;;2.25;81.55
20027;BME280;10174;42.688;23.344;2023-11-19T04:13:27;95342.50;;;2.00;81.50
20027;BME280;10174;42.688;23.344;2023-11-19T04:15:53;95394.59;;;2.26;81.69
20027;BME280;10174;42.688;23.344;2023-11-19T04:18:18;95407.00;;;2.46;81.50
20027;BME280;10174;42.688;23.344;2023-11-19T04:20:44;95393.72;;;2.46;81.09
20027;BME280;10174;42.688;23.344;2023-11-19T04:23:09;95375.19;;;2.39;80.81
20027;BME280;10174;42.688;23.344;2023-11-19T04:25:35;95400.06;;;2.45;81.01
20027;BME280;10174;42.688;23.344;2023-11-19T04:28:01;95367.69;;;2.23;81.09
20027;BME280;10174;42.688;23.344;2023-11-19T04:30:27;95389.28;;;2.40;81.06
20027;BME280;10174;42.688;23.344;2023-11-19T04:32:53;95406.78;;;2.47;81.06
20027;BME280;10174;42.688;23.344;2023-11-19T04:35:18;95402.25;;;2.55;80.38
20027;BME280;10174;42.688;23.344;2023-11-19T04:37:44;95390.66;;;2.49;80.43
20027;BME280;10174;42.688;23.344;2023-11-19T04:40:10;95290.38;;;1.74;80.20
20027;BME280;10174;42.688;23.344;2023-11-19T04:42:40;95403.53;;;2.32;80.14
20027;BME280;10174;42.688;23.344;2023-11-19T04:45:06;95419.84;;;2.42;80.26
20027;BME280;10174;42.688;23.344;2023-11-19T04:47:32;95423.53;;;2.41;81.06
20027;BME280;10174;42.688;23.344;2023-11-19T04:49:58;95428.00;;;2.41;80.58
20027;BME280;10174;42.688;23.344;2023-11-19T04:52:23;95397.06;;;2.21;80.40
20027;BME280;10174;42.688;23.344;2023-11-19T04:54:49;95412.38;;;2.19;80.46
20027;BME280;10174;42.688;23.344;2023-11-19T04:57:14;95398.66;;;2.29;80.45
20027;BME280;10174;42.688;23.344;2023-11-19T04:59:40;95426.75;;;2.50;80.15
20027;BME280;10174;42.688;23.344;2023-11-19T05:02:06;95441.44;;;2.53;80.19
20027;BME280;10174;42.688;23.344;2023-11-19T05:04:33;95437.56;;;2.48;80.14
20027;BME280;10174;42.688;23.344;2023-11-19T05:06:58;95412.09;;;2.41;79.63
20027;BME280;10174;42.688;23.344;2023-11-19T05:09:24;95427.81;;;2.36;79.56
20027;BME280;10174;42.688;23.344;2023-11-19T05:11:49;95376.13;;;2.06;79.80
20027;BME280;10174;42.688;23.344;2023-11-19T05:14:15;95423.34;;;2.29;79.44
20027;BME280;10174;42.688;23.344;2023-11-19T05:16:41;95331.75;;;1.68;79.35
20027;BME280;10174;42.688;23.344;2023-11-19T05:19:08;95460.25;;;2.38;79.32
20027;BME280;10174;42.688;23.344;2023-11-19T05:21:34;95448.03;;;2.30;79.82
20027;BME280;10174;42.688;23.344;2023-11-19T05:24:01;95446.19;;;2.30;79.75
20027;BME280;10174;42.688;23.344;2023-11-19T05:26:30;95415.41;;;2.29;80.14
20027;BME280;10174;42.688;23.344;2023-11-19T05:28:55;95407.88;;;2.26;80.05
20027;BME280;10174;42.688;23.344;2023-11-19T05:31:21;95433.72;;;2.38;79.77
20027;BME280;10174;42.688;23.344;2023-11-19T05:33:46;95423.94;;;2.31;79.95
20027;BME280;10174;42.688;23.344;2023-11-19T05:36:12;95438.00;;;2.45;79.22
20027;BME280;10174;42.688;23.344;2023-11-19T05:38:38;95453.09;;;2.45;79.44
20027;BME280;10174;42.688;23.344;2023-11-19T05:41:04;95449.78;;;2.56;79.70
20027;BME280;10174;42.688;23.344;2023-11-19T05:43:32;95451.66;;;2.49;79.04
20027;BME280;10174;42.688;23.344;2023-11-19T05:45:58;95459.22;;;2.39;79.37
20027;BME280;10174;42.688;23.344;2023-11-19T05:48:26;95473.50;;;2.38;79.60
20027;BME280;10174;42.688;23.344;2023-11-19T05:50:51;95451.28;;;2.32;79.23
20027;BME280;10174;42.688;23.344;2023-11-19T05:53:17;95445.59;;;2.28;79.07
20027;BME280;10174;42.688;23.344;2023-11-19T05:55:42;95420.94;;;2.14;79.58
20027;BME280;10174;42.688;23.344;2023-11-19T05:58:22;95437.38;;;2.37;79.28
20027;BME280;10174;42.688;23.344;2023-11-19T06:00:48;95451.25;;;2.45;78.87
20027;BME280;10174;42.688;23.344;2023-11-19T06:03:16;95446.31;;;2.56;78.98
20027;BME280;10174;42.688;23.344;2023-11-19T06:05:44;95479.94;;;2.75;78.63
20027;BME280;10174;42.688;23.344;2023-11-19T06:08:09;95450.81;;;2.55;78.20
20027;BME280;10174;42.688;23.344;2023-11-19T06:10:35;95462.41;;;2.61;77.89
20027;BME280;10174;42.688;23.344;2023-11-19T06:13:00;95484.22;;;2.70;78.47
20027;BME280;10174;42.688;23.344;2023-11-19T06:15:30;95377.16;;;1.99;78.59
20027;BME280;10174;42.688;23.344;2023-11-19T06:17:55;95461.84;;;2.52;78.37
20027;BME280;10174;42.688;23.344;2023-11-19T06:20:21;95486.31;;;2.54;78.69
20027;BME280;10174;42.688;23.344;2023-11-19T06:22:47;95457.38;;;2.46;78.68
20027;BME280;10174;42.688;23.344;2023-11-19T06:25:12;95468.00;;;2.46;79.23
20027;BME280;10174;42.688;23.344;2023-11-19T06:27:40;95449.81;;;2.49;78.72
20027;BME280;10174;42.688;23.344;2023-11-19T06:30:07;95461.84;;;2.52;78.55
20027;BME280;10174;42.688;23.344;2023-11-19T06:32:32;95476.97;;;2.45;79.15
20027;BME280;10174;42.688;23.344;2023-11-19T06:34:58;95423.56;;;2.28;79.11
20027;BME280;10174;42.688;23.344;2023-11-19T06:37:23;95439.66;;;2.40;79.16
20027;BME280;10174;42.688;23.344;2023-11-19T06:39:49;95480.59;;;2.57;78.90
20027;BME280;10174;42.688;23.344;2023-11-19T06:42:14;95403.03;;;1.96;78.81
20027;BME280;10174;42.688;23.344;2023-11-19T06:44:40;95455.75;;;2.45;78.77
20027;BME280;10174;42.688;23.344;2023-11-19T06:47:05;95431.34;;;2.16;79.02
20027;BME280;10174;42.688;23.344;2023-11-19T06:49:31;95490.22;;;2.45;78.95
20027;BME280;10174;42.688;23.344;2023-11-19T06:51:57;95475.75;;;2.47;78.19
20027;BME280;10174;42.688;23.344;2023-11-19T06:54:22;95475.53;;;2.49;78.28
20027;BME280;10174;42.688;23.344;2023-11-19T06:56:48;95490.22;;;2.38;78.63
20027;BME280;10174;42.688;23.344;2023-11-19T06:59:13;95480.41;;;2.45;78.21
20027;BME280;10174;42.688;23.344;2023-11-19T07:01:39;95491.25;;;2.44;77.84
20027;BME280;10174;42.688;23.344;2023-11-19T07:04:08;95471.41;;;2.53;77.43
20027;BME280;10174;42.688;23.344;2023-11-19T07:06:35;95505.13;;;2.46;77.73
20027;BME280;10174;42.688;23.344;2023-11-19T07:09:02;95497.56;;;2.49;76.89
20027;BME280;10174;42.688;23.344;2023-11-19T07:11:39;95501.88;;;2.37;77.87
20027;BME280;10174;42.688;23.344;2023-11-19T07:14:05;95515.09;;;2.44;78.04
20027;BME280;10174;42.688;23.344;2023-11-19T07:16:34;95497.94;;;2.53;76.79
20027;BME280;10174;42.688;23.344;2023-11-19T07:19:02;95455.97;;;2.43;77.06
20027;BME280;10174;42.688;23.344;2023-11-19T07:21:28;95445.63;;;2.08;76.11
20027;BME280;10174;42.688;23.344;2023-11-19T07:23:57;95489.00;;;2.27;77.68
20027;BME280;10174;42.688;23.344;2023-11-19T07:26:23;95497.59;;;2.43;77.42
20027;BME280;10174;42.688;23.344;2023-11-19T07:28:51;95513.09;;;2.33;77.07
20027;BME280;10174;42.688;23.344;2023-11-19T07:31:17;95515.13;;;2.37;77.44
20027;BME280;10174;42.688;23.344;2023-11-19T07:33:46;95525.13;;;2.42;77.15
20027;BME280;10174;42.688;23.344;2023-11-19T07:36:12;95530.25;;;2.23;77.18
20027;BME280;10174;42.688;23.344;2023-11-19T07:38:40;95510.84;;;2.23;77.05
20027;BME280;10174;42.688;23.344;2023-11-19T07:41:05;95539.81;;;2.44;77.15
20027;BME280;10174;42.688;23.344;2023-11-19T07:43:32;95517.75;;;2.57;76.67
20027;BME280;10174;42.688;23.344;2023-11-19T07:45:57;95462.38;;;1.95;76.85
20027;BME280;10174;42.688;23.344;2023-11-19T07:48:24;95531.38;;;2.74;76.64
20027;BME280;10174;42.688;23.344;2023-11-19T07:50:50;95527.34;;;2.58;76.25
20027;BME280;10174;42.688;23.344;2023-11-19T07:53:16;95515.69;;;2.59;76.04
20027;BME280;10174;42.688;23.344;2023-11-19T07:55:41;95529.56;;;2.68;75.25
20027;BME280;10174;42.688;23.344;2023-11-19T07:58:07;95428.50;;;1.91;75.46
20027;BME280;10174;42.688;23.344;2023-11-19T08:00:32;95545.91;;;2.52;75.83
20027;BME280;10174;42.688;23.344;2023-11-19T08:02:58;95551.81;;;2.47;75.92
20027;BME280;10174;42.688;23.344;2023-11-19T08:05:23;95555.09;;;2.49;75.83
20027;BME280;10174;42.688;23.344;2023-11-19T08:07:50;95524.31;;;2.35;75.64
20027;BME280;10174;42.688;23.344;2023-11-19T08:10:16;95539.13;;;2.76;74.43
20027;BME280;10174;42.688;23.344;2023-11-19T08:12:41;95561.78;;;2.72;75.37
20027;BME280;10174;42.688;23.344;2023-11-19T08:15:07;95564.44;;;2.65;75.01
20027;BME280;10174;42.688;23.344;2023-11-19T08:17:33;95535.91;;;2.34;75.44
20027;BME280;10174;42.688;23.344;2023-11-19T08:19:58;95569.16;;;2.56;75.54
20027;BME280;10174;42.688;23.344;2023-11-19T08:22:25;95562.66;;;2.52;75.56
20027;BME280;10174;42.688;23.344;2023-11-19T08:24:50;95483.91;;;2.26;74.87
20027;BME280;10174;42.688;23.344;2023-11-19T08:27:16;95551.22;;;2.58;75.20
20027;BME280;10174;42.688;23.344;2023-11-19T08:29:41;95534.09;;;2.27;75.94
20027;BME280;10174;42.688;23.344;2023-11-19T08:32:07;95575.69;;;2.47;75.53
20027;BME280;10174;42.688;23.344;2023-11-19T08:34:32;95425.47;;;1.54;76.39
20027;BME280;10174;42.688;23.344;2023-11-19T08:36:58;95551.22;;;2.31;76.00
20027;BME280;10174;42.688;23.344;2023-11-19T08:39:23;95515.56;;;2.01;75.76
20027;BME280;10174;42.688;23.344;2023-11-19T08:41:50;95581.84;;;2.34;76.60
20027;BME280;10174;42.688;23.344;2023-11-19T08:44:16;95573.44;;;2.57;75.73
20027;BME280;10174;42.688;23.344;2023-11-19T08:46:48;95555.94;;;2.16;76.27
20027;BME280;10174;42.688;23.344;2023-11-19T08:49:14;95581.19;;;2.45;76.18
20027;BME280;10174;42.688;23.344;2023-11-19T08:51:40;95445.84;;;1.93;74.93
20027;BME280;10174;42.688;23.344;2023-11-19T08:54:05;95572.16;;;2.93;74.18
20027;BME280;10174;42.688;23.344;2023-11-19T08:56:31;95572.38;;;2.72;73.90
20027;BME280;10174;42.688;23.344;2023-11-19T08:58:58;95589.13;;;2.79;74.04
20027;BME280;10174;42.688;23.344;2023-11-19T09:01:23;95463.16;;;2.16;73.30
20027;BME280;10174;42.688;23.344;2023-11-19T09:03:50;95567.44;;;2.95;72.56
20027;BME280;10174;42.688;23.344;2023-11-19T09:06:15;95544.13;;;3.11;72.13
20027;BME280;10174;42.688;23.344;2023-11-19T09:08:42;95483.44;;;2.62;71.87
20027;BME280;10174;42.688;23.344;2023-11-19T09:11:08;95563.16;;;2.94;73.17
20027;BME280;10174;42.688;23.344;2023-11-19T09:13:34;95458.56;;;2.50;72.89
20027;BME280;10174;42.688;23.344;2023-11-19T09:16:00;95569.09;;;2.96;72.64
20027;BME280;10174;42.688;23.344;2023-11-19T09:18:29;95543.44;;;3.22;71.69
20027;BME280;10174;42.688;23.344;2023-11-19T09:20:54;95505.03;;;2.73;72.27
20027;BME280;10174;42.688;23.344;2023-11-19T09:23:20;95557.75;;;3.21;72.25
20027;BME280;10174;42.688;23.344;2023-11-19T09:25:45;95570.09;;;2.95;71.87
20027;BME280;10174;42.688;23.344;2023-11-19T09:28:11;95576.34;;;3.21;71.34
20027;BME280;10174;42.688;23.344;2023-11-19T09:30:36;95589.38;;;3.29;71.70
20027;BME280;10174;42.688;23.344;2023-11-19T09:33:01;95577.50;;;3.38;71.10
20027;BME280;10174;42.688;23.344;2023-11-19T09:35:27;95544.53;;;3.08;71.43
20027;BME280;10174;42.688;23.344;2023-11-19T09:37:52;95549.66;;;3.54;70.75
20027;BME280;10174;42.688;23.344;2023-11-19T09:40:18;95551.97;;;3.37;71.20
20027;BME280;10174;42.688;23.344;2023-11-19T09:42:44;95535.63;;;3.72;70.51
20027;BME280;10174;42.688;23.344;2023-11-19T09:45:17;95526.44;;;3.30;71.21
20027;BME280;10174;42.688;23.344;2023-11-19T09:47:44;95497.16;;;3.05;71.00
20027;BME280;10174;42.688;23.344;2023-11-19T09:50:17;95516.47;;;3.25;70.38
20027;BME280;10174;42.688;23.344;2023-11-19T09:52:47;95438.03;;;2.84;69.84
20027;BME280;10174;42.688;23.344;2023-11-19T09:55:12;95502.09;;;3.39;70.40
20027;BME280;10174;42.688;23.344;2023-11-19T09:57:39;95486.41;;;3.31;70.46
20027;BME280;10174;42.688;23.344;2023-11-19T10:00:06;95490.91;;;3.31;69.66
20027;BME280;10174;42.688;23.344;2023-11-19T10:02:33;95409.00;;;2.96;69.61
20027;BME280;10174;42.688;23.344;2023-11-19T10:05:04;95390.63;;;2.94;68.97
20027;BME280;10174;42.688;23.344;2023-11-19T10:07:31;95496.72;;;3.53;68.64
20027;BME280;10174;42.688;23.344;2023-11-19T10:10:01;95507.91;;;3.23;69.94
20027;BME280;10174;42.688;23.344;2023-11-19T10:12:29;95497.53;;;3.15;70.45
20027;BME280;10174;42.688;23.344;2023-11-19T10:14:58;95465.94;;;3.00;71.71
20027;BME280;10174;42.688;23.344;2023-11-19T10:17:28;95503.91;;;3.46;71.37
20027;BME280;10174;42.688;23.344;2023-11-19T10:19:57;95483.50;;;3.71;69.06
20027;BME280;10174;42.688;23.344;2023-11-19T10:22:23;95489.84;;;4.21;67.77
20027;BME280;10174;42.688;23.344;2023-11-19T10:24:49;95502.47;;;4.32;65.96
20027;BME280;10174;42.688;23.344;2023-11-19T10:27:15;95510.50;;;4.00;67.43
20027;BME280;10174;42.688;23.344;2023-11-19T10:29:44;95518.38;;;3.82;67.79
20027;BME280;10174;42.688;23.344;2023-11-19T10:32:12;95396.66;;;3.15;68.95
20027;BME280;10174;42.688;23.344;2023-11-19T10:34:37;95463.72;;;3.35;68.93
20027;BME280;10174;42.688;23.344;2023-11-19T10:37:04;95493.75;;;3.36;70.21
20027;BME280;10174;42.688;23.344;2023-11-19T10:39:53;95490.84;;;3.44;70.43
20027;BME280;10174;42.688;23.344;2023-11-19T10:42:22;95493.44;;;3.51;70.86
20027;BME280;10174;42.688;23.344;2023-11-19T10:44:47;95512.41;;;3.61;69.84
20027;BME280;10174;42.688;23.344;2023-11-19T10:47:18;95513.69;;;3.52;69.12
20027;BME280;10174;42.688;23.344;2023-11-19T10:49:45;95491.84;;;3.43;69.07
20027;BME280;10174;42.688;23.344;2023-11-19T10:52:17;95492.50;;;3.38;69.44
20027;BME280;10174;42.688;23.344;2023-11-19T10:54:44;95467.66;;;3.26;69.76
20027;BME280;10174;42.688;23.344;2023-11-19T10:57:21;95407.41;;;2.88;70.09
20027;BME280;10174;42.688;23.344;2023-11-19T10:59:47;95460.13;;;3.55;68.58
20027;BME280;10174;42.688;23.344;2023-11-19T11:02:18;95461.53;;;3.83;68.00
20027;BME280;10174;42.688;23.344;2023-11-19T11:04:46;95474.88;;;4.01;67.84
20027;BME280;10174;42.688;23.344;2023-11-19T11:07:14;95429.47;;;4.03;65.88
20027;BME280;10174;42.688;23.344;2023-11-19T11:09:41;95445.72;;;4.57;65.85
20027;BME280;10174;42.688;23.344;2023-11-19T11:12:09;95458.97;;;5.12;64.18
20027;BME280;10174;42.688;23.344;2023-11-19T11:14:37;95461.50;;;5.07;63.35
20027;BME280;10174;42.688;23.344;2023-11-19T11:17:04;95450.78;;;5.98;60.81
20027;BME280;10174;42.688;23.344;2023-11-19T11:19:33;95439.38;;;5.37;61.98
20027;BME280;10174;42.688;23.344;2023-11-19T11:22:00;95420.59;;;5.86;59.68
20027;BME280;10174;42.688;23.344;2023-11-19T11:27:30;95462.22;;;5.87;59.86
20027;BME280;10174;42.688;23.344;2023-11-19T11:30:31;95447.53;;;5.54;61.02
20027;BME280;10174;42.688;23.344;2023-11-19T11:33:22;95445.00;;;6.25;59.50
20027;BME280;10174;42.688;23.344;2023-11-19T11:36:10;95435.31;;;6.59;57.05
20027;BME280;10174;42.688;23.344;2023-11-19T11:38:40;95453.34;;;6.29;57.29
20027;BME280;10174;42.688;23.344;2023-11-19T11:43:49;95432.63;;;5.77;58.79
20027;BME280;10174;42.688;23.344;2023-11-19T11:49:05;95417.94;;;6.45;57.53
20027;BME280;10174;42.688;23.344;2023-11-19T11:57:07;95407.63;;;6.89;56.48
20027;BME280;10174;42.688;23.344;2023-11-19T11:59:51;95421.88;;;6.54;56.84
20027;BME280;10174;42.688;23.344;2023-11-19T12:02:21;95424.81;;;6.29;58.39
20027;BME280;10174;42.688;23.344;2023-11-19T12:04:49;95423.75;;;6.42;57.77
20027;BME280;10174;42.688;23.344;2023-11-19T12:07:21;95423.66;;;6.25;58.16
20027;BME280;10174;42.688;23.344;2023-11-19T12:10:07;95415.31;;;6.10;58.57
20027;BME280;10174;42.688;23.344;2023-11-19T12:12:33;95361.25;;;5.79;58.51
20027;BME280;10174;42.688;23.344;2023-11-19T12:15:04;95403.31;;;5.88;59.65
20027;BME280;10174;42.688;23.344;2023-11-19T12:20:02;95400.47;;;5.36;60.80
20027;BME280;10174;42.688;23.344;2023-11-19T12:22:28;95389.63;;;5.61;60.22
20027;BME280;10174;42.688;23.344;2023-11-19T12:24:54;95341.44;;;5.21;60.40
20027;BME280;10174;42.688;23.344;2023-11-19T12:27:20;95340.41;;;5.22;60.80
20027;BME280;10174;42.688;23.344;2023-11-19T12:29:49;95385.16;;;5.43;61.37
20027;BME280;10174;42.688;23.344;2023-11-19T12:32:15;95357.91;;;5.29;61.11
20027;BME280;10174;42.688;23.344;2023-11-19T12:34:40;95375.09;;;5.57;61.32
20027;BME280;10174;42.688;23.344;2023-11-19T12:37:06;95378.75;;;5.86;60.27
20027;BME280;10174;42.688;23.344;2023-11-19T12:39:32;95370.28;;;6.01;60.22
20027;BME280;10174;42.688;23.344;2023-11-19T12:41:57;95366.69;;;6.19;59.52
20027;BME280;10174;42.688;23.344;2023-11-19T12:44:26;95342.56;;;5.91;58.70
20027;BME280;10174;42.688;23.344;2023-11-19T12:47:05;95352.91;;;5.99;60.14
20027;BME280;10174;42.688;23.344;2023-11-19T12:49:36;95341.63;;;5.38;61.67
20027;BME280;10174;42.688;23.344;2023-11-19T12:52:10;95355.53;;;5.75;61.60
20027;BME280;10174;42.688;23.344;2023-11-19T12:54:36;95332.31;;;5.16;62.31
20027;BME280;10174;42.688;23.344;2023-11-19T12:57:03;95354.91;;;5.26;63.08
20027;BME280;10174;42.688;23.344;2023-11-19T12:59:30;95339.31;;;5.41;62.73
20027;BME280;10174;42.688;23.344;2023-11-19T13:04:21;95344.16;;;5.44;62.85
20027;BME280;10174;42.688;23.344;2023-11-19T13:06:47;95349.84;;;5.36;63.38
20027;BME280;10174;42.688;23.344;2023-11-19T13:11:48;95328.72;;;5.23;62.97
20027;BME280;10174;42.688;23.344;2023-11-19T13:14:14;95339.19;;;5.36;63.13
20027;BME280;10174;42.688;23.344;2023-11-19T13:16:39;95324.34;;;5.28;62.76
20027;BME280;10174;42.688;23.344;2023-11-19T13:19:05;95276.44;;;4.86;63.34
20027;BME280;10174;42.688;23.344;2023-11-19T13:21:31;95336.59;;;5.29;62.32
20027;BME280;10174;42.688;23.344;2023-11-19T13:23:56;95321.53;;;5.23;62.24